createdAt,value
2023-02-18T00:00:42.267Z,96928.78
2023-02-18T00:01:46.855Z,96923.47
2023-02-18T00:02:52.824Z,96922.63
2023-02-18T00:03:54.881Z,96920.19
2023-02-18T00:04:59.502Z,96914.84
2023-02-18T00:06:01.509Z,96918.41
2023-02-18T00:07:06.204Z,96914.97
2023-02-18T00:08:08.212Z,96922.63
2023-02-18T00:09:14.170Z,96915.69
2023-02-18T00:10:16.977Z,96923.47
2023-02-18T00:11:23.434Z,96921.66
2023-02-18T00:12:25.480Z,96921.06
2023-02-18T00:13:30.418Z,96920.03
2023-02-18T00:14:35.403Z,96922.88
2023-02-18T00:15:38.345Z,96919.25
2023-02-18T00:16:43.607Z,96918.34
2023-02-18T00:17:48.206Z,96924.31
2023-02-18T00:18:53.083Z,96917.41
2023-02-18T00:19:57.851Z,96920.66
2023-02-18T00:21:02.573Z,96926.84
2023-02-18T00:22:04.597Z,96920.59
2023-02-18T00:23:09.825Z,96915.66
2023-02-18T00:24:15.378Z,96918.41
2023-02-18T00:25:20.315Z,96911.59
2023-02-18T00:26:22.861Z,96912.38
2023-02-18T00:27:27.522Z,96919.34
2023-02-18T00:28:29.919Z,96909.81
2023-02-18T00:29:35.667Z,96907.88
2023-02-18T00:30:40.910Z,96901.84
2023-02-18T00:31:45.912Z,96909.56
2023-02-18T00:32:50.661Z,96903.38
2023-02-18T00:33:55.582Z,96900.94
2023-02-18T00:34:57.672Z,96897.44
2023-02-18T00:36:05.964Z,96888.88
2023-02-18T00:37:10.763Z,96903.56
2023-02-18T00:38:12.829Z,96904.47
2023-02-18T00:39:17.558Z,96907.03
2023-02-18T00:40:20.174Z,96898.19
2023-02-18T00:41:26.804Z,96893.88
2023-02-18T00:42:29.406Z,96882.56
2023-02-18T00:43:34.038Z,96894.78
2023-02-18T00:44:36.129Z,96895.59
2023-02-18T00:45:40.850Z,96887.69
2023-02-18T00:46:43.107Z,96892.88
2023-02-18T00:47:47.763Z,96902.28
2023-02-18T00:48:52.595Z,96897.94
2023-02-18T00:49:57.204Z,96893.84
2023-02-18T00:51:00.872Z,96892.25
2023-02-18T00:52:05.693Z,96887.81
2023-02-18T00:53:07.835Z,96890.41
2023-02-18T00:54:12.720Z,96893.19
2023-02-18T00:55:14.860Z,96886.28
2023-02-18T00:56:19.820Z,96885.34
2023-02-18T00:57:21.879Z,96896.59
2023-02-18T00:58:26.666Z,96887.00
2023-02-18T00:59:31.226Z,96896.59
2023-02-18T01:00:33.697Z,96894.66
2023-02-18T01:01:38.399Z,96885.97
2023-02-18T01:02:40.434Z,96895.41
2023-02-18T01:03:46.505Z,96886.94
2023-02-18T01:04:51.232Z,96896.47
2023-02-18T01:05:56.586Z,96893.16
2023-02-18T01:06:59.262Z,96897.38
2023-02-18T01:08:03.888Z,96893.13
2023-02-18T01:09:06.418Z,96901.78
2023-02-18T01:10:11.591Z,96905.28
2023-02-18T01:11:14.534Z,96908.59
2023-02-18T01:12:19.522Z,96907.69
2023-02-18T01:13:22.387Z,96911.97
2023-02-18T01:14:27.091Z,96906.97
2023-02-18T01:15:29.129Z,96908.66
2023-02-18T01:16:33.785Z,96908.56
2023-02-18T01:17:36.110Z,96919.75
2023-02-18T01:18:41.704Z,96909.19
2023-02-18T01:19:44.003Z,96919.47
2023-02-18T01:20:51.586Z,96927.16
2023-02-18T01:21:53.831Z,96912.47
2023-02-18T01:22:58.414Z,96910.00
2023-02-18T01:24:00.459Z,96907.63
2023-02-18T01:25:05.571Z,96902.44
2023-02-18T01:26:08.311Z,96904.66
2023-02-18T01:27:13.088Z,96910.59
2023-02-18T01:28:15.964Z,96902.34
2023-02-18T01:29:20.532Z,96905.84
2023-02-18T01:30:22.796Z,96900.88
2023-02-18T01:31:28.025Z,96901.84
2023-02-18T01:32:30.289Z,96902.66
2023-02-18T01:33:35.122Z,96909.56
2023-02-18T01:34:37.303Z,96897.44
2023-02-18T01:35:42.943Z,96899.31
2023-02-18T01:36:47.605Z,96900.38
2023-02-18T01:37:52.231Z,96905.50
2023-02-18T01:38:54.301Z,96895.34
2023-02-18T01:39:59.023Z,96892.66
2023-02-18T01:41:01.053Z,96908.09
2023-02-18T01:42:05.708Z,96894.34
2023-02-18T01:43:10.378Z,96893.50
2023-02-18T01:44:20.580Z,96895.19
2023-02-18T01:45:52.029Z,96904.03
2023-02-18T01:46:57.337Z,96891.19
2023-02-18T01:48:00.073Z,96888.50
2023-02-18T01:49:05.064Z,96896.28
2023-02-18T01:50:07.766Z,96887.63
2023-02-18T01:51:16.613Z,96896.88
2023-02-18T01:52:25.922Z,96887.31
2023-02-18T01:53:36.143Z,96898.41
2023-02-18T01:54:43.257Z,96892.44
2023-02-18T01:55:49.161Z,96900.28
2023-02-18T01:56:57.963Z,96887.25
2023-02-18T01:58:00.432Z,96888.03
2023-02-18T01:59:10.433Z,96890.63
2023-02-18T02:00:17.170Z,96895.94
2023-02-18T02:01:21.757Z,96889.78
2023-02-18T02:02:29.337Z,96885.44
2023-02-18T02:03:34.089Z,96890.75
2023-02-18T02:04:36.135Z,96884.75
2023-02-18T02:05:40.712Z,96893.34
2023-02-18T02:06:44.212Z,96879.69
2023-02-18T02:07:55.772Z,96892.53
2023-02-18T02:08:59.447Z,96876.00
2023-02-18T02:10:05.050Z,96878.59
2023-02-18T02:11:17.272Z,96881.28
2023-02-18T02:12:40.922Z,96879.53
2023-02-18T02:13:59.608Z,96880.50
2023-02-18T02:15:21.531Z,96874.50
2023-02-18T02:16:29.507Z,96879.69
2023-02-18T02:17:43.097Z,96860.75
2023-02-18T02:18:56.773Z,96861.69
2023-02-18T02:20:35.995Z,96868.66
2023-02-18T02:22:10.103Z,96864.31
2023-02-18T02:23:43.552Z,96858.16
2023-02-18T02:25:07.303Z,96868.34
2023-02-18T02:26:46.286Z,96867.53
2023-02-18T02:28:21.352Z,96871.66
2023-02-18T02:30:01.784Z,96862.13
2023-02-18T02:31:30.715Z,96865.41
2023-02-18T02:33:20.095Z,96869.63
2023-02-18T02:34:33.528Z,96865.16
2023-02-18T02:35:41.032Z,96862.56
2023-02-18T02:36:49.640Z,96878.91
2023-02-18T02:38:04.886Z,96859.19
2023-02-18T02:39:14.309Z,96866.97
2023-02-18T02:40:31.448Z,96872.69
2023-02-18T02:41:45.033Z,96865.13
2023-02-18T02:42:56.606Z,96860.78
2023-02-18T02:44:03.331Z,96865.97
2023-02-18T02:45:14.137Z,96871.84
2023-02-18T02:46:21.835Z,96870.19
2023-02-18T02:47:35.403Z,96859.06
2023-02-18T02:48:45.738Z,96857.47
2023-02-18T02:50:01.182Z,96852.06
2023-02-18T02:51:10.616Z,96863.28
2023-02-18T02:52:17.696Z,96865.97
2023-02-18T02:53:27.426Z,96855.59
2023-02-18T02:54:30.098Z,96847.09
2023-02-18T02:55:34.809Z,96850.53
2023-02-18T02:56:36.908Z,96848.53
2023-02-18T02:57:52.021Z,96839.06
2023-02-18T02:59:00.459Z,96839.19
2023-02-18T03:00:10.453Z,96839.91
2023-02-18T03:01:27.630Z,96832.94
2023-02-18T03:02:40.752Z,96830.25
2023-02-18T03:04:02.085Z,96826.00
2023-02-18T03:05:23.314Z,96833.88
2023-02-18T03:06:43.921Z,96824.38
2023-02-18T03:08:15.965Z,96827.88
2023-02-18T03:09:27.547Z,96827.06
2023-02-18T03:10:57.166Z,96827.00
2023-02-18T03:12:06.680Z,96825.19
2023-02-18T03:13:19.804Z,96827.56
2023-02-18T03:14:29.927Z,96824.25
2023-02-18T03:15:42.715Z,96829.44
2023-02-18T03:16:50.086Z,96832.97
2023-02-18T03:18:01.992Z,96816.72
2023-02-18T03:19:10.446Z,96826.16
2023-02-18T03:20:26.589Z,96828.88
2023-02-18T03:21:32.197Z,96823.00
2023-02-18T03:22:42.169Z,96827.31
2023-02-18T03:23:49.892Z,96823.81
2023-02-18T03:24:57.517Z,96822.78
2023-02-18T03:26:00.961Z,96820.97
2023-02-18T03:27:10.683Z,96828.94
2023-02-18T03:28:17.466Z,96822.56
2023-02-18T03:29:24.394Z,96822.69
2023-02-18T03:30:30.523Z,96828.72
2023-02-18T03:31:40.604Z,96831.22
2023-02-18T03:32:45.764Z,96809.81
2023-02-18T03:33:54.491Z,96823.44
2023-02-18T03:35:01.186Z,96815.00
2023-02-18T03:36:10.161Z,96820.38
2023-02-18T03:37:14.535Z,96820.25
2023-02-18T03:38:25.022Z,96821.94
2023-02-18T03:39:29.691Z,96820.19
2023-02-18T03:40:34.819Z,96816.03
2023-02-18T03:41:37.130Z,96813.59
2023-02-18T03:42:41.765Z,96816.31
2023-02-18T03:43:50.152Z,96823.94
2023-02-18T03:44:54.784Z,96816.81
2023-02-18T03:45:56.881Z,96814.28
2023-02-18T03:47:02.073Z,96822.91
2023-02-18T03:48:04.662Z,96823.00
2023-02-18T03:49:09.665Z,96829.91
2023-02-18T03:50:11.758Z,96825.38
2023-02-18T03:51:19.821Z,96827.00
2023-02-18T03:52:22.114Z,96826.16
2023-02-18T03:53:26.708Z,96823.44
2023-02-18T03:54:28.753Z,96832.19
2023-02-18T03:55:33.461Z,96827.97
2023-02-18T03:56:36.549Z,96837.31
2023-02-18T03:57:41.259Z,96830.34
2023-02-18T03:58:44.044Z,96828.88
2023-02-18T03:59:49.136Z,96825.56
2023-02-18T04:00:52.200Z,96822.13
2023-02-18T04:01:57.151Z,96817.84
2023-02-18T04:02:59.302Z,96821.34
2023-02-18T04:04:04.528Z,96818.75
2023-02-18T04:05:07.674Z,96822.06
2023-02-18T04:06:12.598Z,96817.06
2023-02-18T04:07:18.682Z,96814.47
2023-02-18T04:08:23.807Z,96821.44
2023-02-18T04:09:25.955Z,96804.09
2023-02-18T04:10:31.012Z,96825.81
2023-02-18T04:11:33.298Z,96830.09
2023-02-18T04:12:38.074Z,96823.81
2023-02-18T04:13:40.318Z,96822.06
2023-02-18T04:14:45.431Z,96816.16
2023-02-18T04:15:52.490Z,96821.34
2023-02-18T04:16:54.569Z,96811.31
2023-02-18T04:17:59.847Z,96817.13
2023-02-18T04:19:02.062Z,96809.38
2023-02-18T04:20:07.772Z,96804.16
2023-02-18T04:21:09.902Z,96811.13
2023-02-18T04:22:14.501Z,96802.63
2023-02-18T04:23:19.386Z,96805.22
2023-02-18T04:24:29.741Z,96807.81
2023-02-18T04:25:32.922Z,96796.50
2023-02-18T04:26:37.914Z,96811.31
2023-02-18T04:27:42.823Z,96795.66
2023-02-18T04:28:47.008Z,96806.88
2023-02-18T04:29:52.918Z,96805.91
2023-02-18T04:30:54.998Z,96801.72
2023-02-18T04:32:00.012Z,96811.09
2023-02-18T04:33:03.339Z,96810.19
2023-02-18T04:34:08.430Z,96804.09
2023-02-18T04:35:10.566Z,96799.13
2023-02-18T04:36:15.845Z,96802.56
2023-02-18T04:37:20.625Z,96800.06
2023-02-18T04:38:25.362Z,96797.69
2023-02-18T04:39:30.675Z,96798.41
2023-02-18T04:40:32.839Z,96799.38
2023-02-18T04:41:37.876Z,96782.06
2023-02-18T04:42:40.753Z,96788.06
2023-02-18T04:43:45.518Z,96790.81
2023-02-18T04:44:48.121Z,96790.81
2023-02-18T04:45:56.717Z,96802.88
2023-02-18T04:46:58.759Z,96799.38
2023-02-18T04:48:03.900Z,96795.09
2023-02-18T04:49:06.005Z,96793.22
2023-02-18T04:50:12.961Z,96791.56
2023-02-18T04:51:15.012Z,96794.91
2023-02-18T04:52:21.532Z,96789.59
2023-02-18T04:53:26.803Z,96791.44
2023-02-18T04:54:31.777Z,96793.22
2023-02-18T04:55:33.968Z,96794.06
2023-02-18T04:56:39.024Z,96800.06
2023-02-18T04:57:41.218Z,96804.19
2023-02-18T04:58:46.042Z,96800.84
2023-02-18T04:59:48.791Z,96796.00
2023-02-18T05:00:54.118Z,96799.38
2023-02-18T05:01:57.850Z,96796.06
2023-02-18T05:03:04.818Z,96804.63
2023-02-18T05:04:07.051Z,96808.94
2023-02-18T05:05:15.086Z,96811.53
2023-02-18T05:06:17.221Z,96808.28
2023-02-18T05:07:22.388Z,96811.75
2023-02-18T05:08:33.248Z,96805.75
2023-02-18T05:09:38.022Z,96816.94
2023-02-18T05:10:40.333Z,96815.19
2023-02-18T05:11:45.566Z,96820.34
2023-02-18T05:12:48.097Z,96814.59
2023-02-18T05:13:53.081Z,96810.25
2023-02-18T05:14:55.142Z,96816.22
2023-02-18T05:15:59.969Z,96809.84
2023-02-18T05:17:02.081Z,96804.91
2023-02-18T05:18:07.448Z,96809.25
2023-02-18T05:19:10.992Z,96811.84
2023-02-18T05:20:19.020Z,96811.75
2023-02-18T05:21:21.139Z,96804.22
2023-02-18T05:22:26.182Z,96811.22
2023-02-18T05:23:31.205Z,96818.09
2023-02-18T05:24:36.238Z,96811.09
2023-02-18T05:25:38.412Z,96809.41
2023-02-18T05:26:43.571Z,96811.03
2023-02-18T05:27:45.721Z,96816.28
2023-02-18T05:28:50.519Z,96813.53
2023-02-18T05:29:52.603Z,96818.66
2023-02-18T05:30:57.364Z,96820.34
2023-02-18T05:31:59.605Z,96808.22
2023-02-18T05:33:04.473Z,96820.44
2023-02-18T05:34:07.016Z,96816.06
2023-02-18T05:35:12.235Z,96815.19
2023-02-18T05:36:14.583Z,96816.13
2023-02-18T05:37:19.515Z,96799.84
2023-02-18T05:38:21.890Z,96804.84
2023-02-18T05:39:29.645Z,96798.13
2023-02-18T05:40:31.784Z,96796.34
2023-02-18T05:41:37.132Z,96796.22
2023-02-18T05:42:39.205Z,96796.22
2023-02-18T05:43:56.228Z,96800.59
2023-02-18T05:45:01.042Z,96792.84
2023-02-18T05:46:03.567Z,96796.47
2023-02-18T05:47:11.856Z,96790.44
2023-02-18T05:48:14.028Z,96787.78
2023-02-18T05:49:20.182Z,96798.25
2023-02-18T05:50:22.420Z,96802.66
2023-02-18T05:51:28.958Z,96795.78
2023-02-18T05:52:31.451Z,96802.66
2023-02-18T05:53:36.832Z,96804.19
2023-02-18T05:54:41.771Z,96799.97
2023-02-18T05:55:46.449Z,96801.53
2023-02-18T05:56:48.683Z,96802.34
2023-02-18T05:57:53.741Z,96805.25
2023-02-18T05:58:55.861Z,96801.91
2023-02-18T06:00:04.574Z,96803.66
2023-02-18T06:01:06.750Z,96806.38
2023-02-18T06:02:11.863Z,96806.47
2023-02-18T06:03:15.293Z,96801.38
2023-02-18T06:04:20.339Z,96806.50
2023-02-18T06:05:26.910Z,96804.69
2023-02-18T06:06:31.904Z,96803.03
2023-02-18T06:07:36.732Z,96805.53
2023-02-18T06:08:39.890Z,96808.25
2023-02-18T06:09:47.779Z,96796.00
2023-02-18T06:10:49.918Z,96793.50
2023-02-18T06:11:55.050Z,96806.59
2023-02-18T06:12:57.492Z,96798.06
2023-02-18T06:14:02.273Z,96810.16
2023-02-18T06:15:05.933Z,96805.78
2023-02-18T06:16:11.179Z,96805.88
2023-02-18T06:17:18.916Z,96799.53
2023-02-18T06:18:21.377Z,96795.78
2023-02-18T06:19:26.604Z,96790.78
2023-02-18T06:20:33.234Z,96788.25
2023-02-18T06:21:40.238Z,96786.72
2023-02-18T06:22:42.398Z,96791.84
2023-02-18T06:23:47.548Z,96799.59
2023-02-18T06:24:55.322Z,96797.09
2023-02-18T06:25:57.505Z,96796.13
2023-02-18T06:27:02.458Z,96801.38
2023-02-18T06:28:06.048Z,96804.66
2023-02-18T06:29:10.817Z,96801.38
2023-02-18T06:30:13.691Z,96807.25
2023-02-18T06:31:18.683Z,96795.97
2023-02-18T06:32:21.144Z,96799.53
2023-02-18T06:33:26.428Z,96805.53
2023-02-18T06:34:29.170Z,96801.38
2023-02-18T06:35:36.904Z,96801.31
2023-02-18T06:36:40.885Z,96795.28
2023-02-18T06:37:46.050Z,96801.44
2023-02-18T06:38:48.147Z,96794.47
2023-02-18T06:39:56.506Z,96799.47
2023-02-18T06:40:58.598Z,96796.13
2023-02-18T06:42:03.575Z,96800.47
2023-02-18T06:43:05.709Z,96801.28
2023-02-18T06:44:11.556Z,96804.66
2023-02-18T06:45:13.764Z,96806.38
2023-02-18T06:46:18.573Z,96807.25
2023-02-18T06:47:20.909Z,96808.00
2023-02-18T06:48:26.036Z,96806.16
2023-02-18T06:49:31.005Z,96806.38
2023-02-18T06:50:33.202Z,96810.84
2023-02-18T06:51:38.018Z,96815.81
2023-02-18T06:52:40.137Z,96805.47
2023-02-18T06:53:45.186Z,96814.22
2023-02-18T06:54:47.374Z,96804.63
2023-02-18T06:55:55.814Z,96808.06
2023-02-18T06:56:58.088Z,96808.97
2023-02-18T06:58:03.538Z,96813.91
2023-02-18T06:59:05.594Z,96801.19
2023-02-18T07:00:11.920Z,96796.91
2023-02-18T07:01:14.085Z,96794.34
2023-02-18T07:02:21.980Z,96784.63
2023-02-18T07:03:24.378Z,96784.53
2023-02-18T07:04:47.077Z,96781.94
2023-02-18T07:05:55.977Z,96779.34
2023-02-18T07:07:27.353Z,96777.50
2023-02-18T07:08:41.383Z,96784.59
2023-02-18T07:09:52.593Z,96787.88
2023-02-18T07:11:08.377Z,96781.84
2023-02-18T07:12:10.696Z,96782.72
2023-02-18T07:13:23.462Z,96775.72
2023-02-18T07:14:29.396Z,96784.53
2023-02-18T07:15:38.326Z,96785.41
2023-02-18T07:16:40.723Z,96786.13
2023-02-18T07:17:45.768Z,96792.75
2023-02-18T07:18:48.238Z,96791.25
2023-02-18T07:19:53.179Z,96786.91
2023-02-18T07:20:58.043Z,96791.88
2023-02-18T07:22:00.684Z,96790.25
2023-02-18T07:23:05.651Z,96782.44
2023-02-18T07:24:10.774Z,96788.16
2023-02-18T07:25:16.170Z,96791.56
2023-02-18T07:26:24.229Z,96794.19
2023-02-18T07:27:26.404Z,96792.31
2023-02-18T07:28:32.029Z,96783.78
2023-02-18T07:29:36.713Z,96783.94
2023-02-18T07:30:41.806Z,96780.56
2023-02-18T07:31:44.280Z,96778.75
2023-02-18T07:32:49.419Z,96779.47
2023-02-18T07:33:51.659Z,96775.13
2023-02-18T07:34:57.879Z,96783.47
2023-02-18T07:36:03.723Z,96775.69
2023-02-18T07:37:09.625Z,96769.56
2023-02-18T07:38:14.557Z,96770.59
2023-02-18T07:39:20.834Z,96765.25
2023-02-18T07:40:25.867Z,96757.97
2023-02-18T07:41:32.933Z,96753.88
2023-02-18T07:42:37.869Z,96759.38
2023-02-18T07:43:40.248Z,96762.03
2023-02-18T07:44:45.385Z,96768.88
2023-02-18T07:45:47.690Z,96764.19
2023-02-18T07:46:53.575Z,96767.50
2023-02-18T07:47:55.700Z,96759.00
2023-02-18T07:49:02.814Z,96762.94
2023-02-18T07:50:12.505Z,96761.19
2023-02-18T07:51:16.178Z,96743.47
2023-02-18T07:52:21.410Z,96750.19
2023-02-18T07:53:23.871Z,96754.66
2023-02-18T07:54:29.476Z,96749.31
2023-02-18T07:55:47.198Z,96746.84
2023-02-18T07:56:55.238Z,96740.63
2023-02-18T07:58:02.469Z,96739.50
2023-02-18T07:59:07.395Z,96744.81
2023-02-18T08:00:10.524Z,96748.94
2023-02-18T08:01:19.307Z,96746.09
2023-02-18T08:02:26.732Z,96757.81
2023-02-18T08:03:31.133Z,96751.13
2023-02-18T08:04:36.246Z,96752.63
2023-02-18T08:05:38.506Z,96755.75
2023-02-18T08:07:02.220Z,96750.56
2023-02-18T08:08:05.294Z,96751.84
2023-02-18T08:09:19.548Z,96751.00
2023-02-18T08:10:22.210Z,96749.59
2023-02-18T08:11:28.866Z,96753.06
2023-02-18T08:12:46.704Z,96749.19
2023-02-18T08:13:52.030Z,96748.94
2023-02-18T08:14:56.949Z,96740.06
2023-02-18T08:16:00.641Z,96729.28
2023-02-18T08:17:05.500Z,96742.16
2023-02-18T08:18:10.694Z,96739.69
2023-02-18T08:19:17.826Z,96746.75
2023-02-18T08:20:22.089Z,96740.44
2023-02-18T08:21:31.212Z,96746.50
2023-02-18T08:22:39.004Z,96748.97
2023-02-18T08:23:48.173Z,96748.09
2023-02-18T08:24:54.258Z,96740.06
2023-02-18T08:25:56.865Z,96744.53
2023-02-18T08:27:02.603Z,96750.44
2023-02-18T08:28:09.885Z,96743.78
2023-02-18T08:29:15.194Z,96740.38
2023-02-18T08:30:28.782Z,96735.38
2023-02-18T08:31:43.221Z,96743.78
2023-02-18T08:32:47.037Z,96731.50
2023-02-18T08:33:56.059Z,96738.00
2023-02-18T08:35:01.180Z,96741.47
2023-02-18T08:36:27.497Z,96728.72
2023-02-18T08:37:51.978Z,96734.22
2023-02-18T08:38:55.115Z,96725.16
2023-02-18T08:40:00.245Z,96718.41
2023-02-18T08:41:03.488Z,96708.94
2023-02-18T08:42:08.761Z,96721.53
2023-02-18T08:43:14.476Z,96720.09
2023-02-18T08:44:23.861Z,96713.59
2023-02-18T08:45:26.345Z,96709.56
2023-02-18T08:46:35.389Z,96718.69
2023-02-18T08:48:19.837Z,96707.66
2023-02-18T08:49:05.054Z,96704.16
2023-02-18T08:50:07.525Z,96702.78
2023-02-18T08:51:17.875Z,96700.88
2023-02-18T08:52:20.200Z,96702.84
2023-02-18T08:53:25.735Z,96703.06
2023-02-18T08:54:28.112Z,96704.75
2023-02-18T08:55:33.153Z,96708.63
2023-02-18T08:56:40.557Z,96711.56
2023-02-18T08:57:46.521Z,96711.22
2023-02-18T08:58:55.906Z,96705.03
2023-02-18T08:59:58.374Z,96702.69
2023-02-18T09:01:17.221Z,96700.72
2023-02-18T09:02:22.652Z,96700.84
2023-02-18T09:03:29.425Z,96700.50
2023-02-18T09:04:34.587Z,96703.97
2023-02-18T09:05:36.855Z,96700.34
2023-02-18T09:06:41.938Z,96706.59
2023-02-18T09:07:44.877Z,96700.06
2023-02-18T09:08:50.156Z,96707.66
2023-02-18T09:09:52.631Z,96708.78
2023-02-18T09:11:00.109Z,96696.69
2023-02-18T09:12:04.621Z,96707.31
2023-02-18T09:13:10.452Z,96703.44
2023-02-18T09:14:17.728Z,96717.56
2023-02-18T09:15:20.285Z,96700.78
2023-02-18T09:16:26.286Z,96698.31
2023-02-18T09:17:28.841Z,96702.44
2023-02-18T09:18:35.925Z,96709.75
2023-02-18T09:19:39.976Z,96698.13
2023-02-18T09:20:44.927Z,96699.88
2023-02-18T09:21:47.309Z,96695.28
2023-02-18T09:22:52.323Z,96699.56
2023-02-18T09:23:54.445Z,96699.84
2023-02-18T09:24:59.210Z,96703.97
2023-02-18T09:26:04.883Z,96697.66
2023-02-18T09:27:11.319Z,96695.22
2023-02-18T09:28:13.413Z,96692.09
2023-02-18T09:29:21.214Z,96695.94
2023-02-18T09:30:23.400Z,96694.19
2023-02-18T09:31:30.142Z,96700.28
2023-02-18T09:32:35.161Z,96693.19
2023-02-18T09:33:40.924Z,96701.28
2023-02-18T09:34:43.273Z,96693.25
2023-02-18T09:35:49.722Z,96694.84
2023-02-18T09:36:54.432Z,96683.56
2023-02-18T09:37:56.538Z,96690.34
2023-02-18T09:39:02.408Z,96688.00
2023-02-18T09:40:08.491Z,96687.41
2023-02-18T09:41:17.910Z,96694.56
2023-02-18T09:42:34.210Z,96676.44
2023-02-18T09:43:45.042Z,96677.34
2023-02-18T09:44:55.509Z,96665.63
2023-02-18T09:45:59.660Z,96678.31
2023-02-18T09:47:08.190Z,96682.72
2023-02-18T09:48:11.600Z,96687.19
2023-02-18T09:49:20.152Z,96673.41
2023-02-18T09:50:26.577Z,96672.34
2023-02-18T09:51:31.690Z,96659.03
2023-02-18T09:52:37.620Z,96667.00
2023-02-18T09:53:42.621Z,96655.78
2023-02-18T09:54:47.542Z,96655.63
2023-02-18T09:55:54.533Z,96665.63
2023-02-18T09:56:59.658Z,96643.31
2023-02-18T09:58:08.571Z,96647.69
2023-02-18T09:59:20.114Z,96643.25
2023-02-18T10:00:37.057Z,96641.72
2023-02-18T10:01:49.762Z,96654.59
2023-02-18T10:03:00.521Z,96650.06
2023-02-18T10:04:29.402Z,96677.25
2023-02-18T10:07:12.156Z,96653.53
2023-02-18T10:08:32.195Z,96660.56
2023-02-18T10:09:42.031Z,96658.31
2023-02-18T10:10:52.105Z,96657.94
2023-02-18T10:12:02.478Z,96637.53
2023-02-18T10:13:07.126Z,96643.25
2023-02-18T10:14:14.765Z,96649.09
2023-02-18T10:15:22.789Z,96655.06
2023-02-18T10:16:31.727Z,96658.16
2023-02-18T10:17:34.158Z,96653.13
2023-02-18T10:18:45.486Z,96634.94
2023-02-18T10:19:49.403Z,96652.22
2023-02-18T10:21:00.717Z,96642.63
2023-02-18T10:22:08.717Z,96653.94
2023-02-18T10:23:13.508Z,96652.44
2023-02-18T10:24:30.257Z,96660.25
2023-02-18T10:25:45.392Z,96658.84
2023-02-18T10:26:51.169Z,96661.16
2023-02-18T10:27:54.770Z,96648.84
2023-02-18T10:29:00.322Z,96654.13
2023-02-18T10:30:18.401Z,96664.69
2023-02-18T10:31:28.661Z,96674.38
2023-02-18T10:32:36.888Z,96660.84
2023-02-18T10:33:48.876Z,96655.19
2023-02-18T10:35:00.412Z,96651.50
2023-02-18T10:36:11.987Z,96656.22
2023-02-18T10:37:31.075Z,96657.66
2023-02-18T10:38:47.760Z,96663.28
2023-02-18T10:40:02.770Z,96656.59
2023-02-18T10:41:14.413Z,96658.69
2023-02-18T10:42:25.242Z,96652.66
2023-02-18T10:43:35.945Z,96659.69
2023-02-18T10:44:53.334Z,96656.03
2023-02-18T10:46:08.247Z,96657.56
2023-02-18T10:47:23.494Z,96658.88
2023-02-18T10:48:53.969Z,96654.16
2023-02-18T10:50:00.067Z,96647.81
2023-02-18T10:51:14.198Z,96645.31
2023-02-18T10:52:20.182Z,96653.25
2023-02-18T10:53:34.393Z,96649.72
2023-02-18T10:54:53.188Z,96651.97
2023-02-18T10:55:58.071Z,96640.63
2023-02-18T10:57:01.193Z,96645.34
2023-02-18T10:58:06.405Z,96632.09
2023-02-18T10:59:14.367Z,96643.50
2023-02-18T11:00:24.167Z,96635.72
2023-02-18T11:01:26.329Z,96653.25
2023-02-18T11:02:44.485Z,96644.53
2023-02-18T11:03:55.826Z,96644.16
2023-02-18T11:05:03.118Z,96650.41
2023-02-18T11:06:10.184Z,96638.31
2023-02-18T11:07:18.581Z,96663.53
2023-02-18T11:08:27.146Z,96644.28
2023-02-18T11:09:36.539Z,96639.34
2023-02-18T11:10:45.402Z,96642.34
2023-02-18T11:11:50.661Z,96647.38
2023-02-18T11:13:02.986Z,96638.53
2023-02-18T11:14:23.292Z,96646.50
2023-02-18T11:15:30.431Z,96631.97
2023-02-18T11:16:44.543Z,96632.75
2023-02-18T11:18:04.008Z,96635.28
2023-02-18T11:19:44.704Z,96623.81
2023-02-18T11:21:01.457Z,96650.50
2023-02-18T11:22:14.795Z,96636.19
2023-02-18T11:23:29.259Z,96635.84
2023-02-18T11:24:31.567Z,96638.09
2023-02-18T11:25:48.118Z,96630.81
2023-02-18T11:27:06.490Z,96655.38
2023-02-18T11:28:39.736Z,96623.06
2023-02-18T11:29:48.963Z,96617.53
2023-02-18T11:31:03.220Z,96617.78
2023-02-18T11:32:12.863Z,96613.25
2023-02-18T11:33:26.589Z,96614.06
2023-02-18T11:34:47.023Z,96610.97
2023-02-18T11:36:10.067Z,96606.94
2023-02-18T11:37:20.501Z,96600.16
2023-02-18T11:38:33.347Z,96608.78
2023-02-18T11:39:46.157Z,96600.72
2023-02-18T11:41:10.093Z,96604.97
2023-02-18T11:42:36.429Z,96589.56
2023-02-18T11:43:47.874Z,96587.25
2023-02-18T11:44:56.821Z,96604.38
2023-02-18T11:46:13.957Z,96597.06
2023-02-18T11:47:53.771Z,96597.66
2023-02-18T11:49:03.056Z,96583.66
2023-02-18T11:50:33.623Z,96604.16
2023-02-18T11:51:45.084Z,96596.69
2023-02-18T11:52:49.423Z,96596.84
2023-02-18T11:54:09.171Z,96604.06
2023-02-18T11:55:23.901Z,96601.63
2023-02-18T11:56:33.464Z,96606.09
2023-02-18T11:57:42.429Z,96595.31
2023-02-18T11:59:00.097Z,96599.47
2023-02-18T12:00:03.323Z,96602.81
2023-02-18T12:01:50.204Z,96591.97
2023-02-18T12:02:59.436Z,96591.34
2023-02-18T12:04:18.938Z,96589.50
2023-02-18T12:05:36.808Z,96585.69
2023-02-18T12:06:45.701Z,96591.47
2023-02-18T12:07:53.467Z,96578.66
2023-02-18T12:09:08.860Z,96597.16
2023-02-18T12:10:20.882Z,96585.22
2023-02-18T12:11:29.556Z,96589.50
2023-02-18T12:12:41.746Z,96597.03
2023-02-18T12:13:56.409Z,96601.63
2023-02-18T12:15:04.205Z,96594.91
2023-02-18T12:16:26.473Z,96599.38
2023-02-18T12:17:59.621Z,96602.75
2023-02-18T12:19:25.461Z,96604.34
2023-02-18T12:21:18.371Z,96612.66
2023-02-18T12:22:41.246Z,96594.00
2023-02-18T12:24:13.135Z,96602.56
2023-02-18T12:26:02.041Z,96591.47
2023-02-18T12:27:16.018Z,96592.97
2023-02-18T12:28:35.135Z,96605.78
2023-02-18T12:30:05.754Z,96585.00
2023-02-18T12:31:26.437Z,96578.78
2023-02-18T12:32:43.053Z,96583.91
2023-02-18T12:33:58.948Z,96591.38
2023-02-18T12:35:27.830Z,96580.03
2023-02-18T12:36:48.278Z,96591.97
2023-02-18T12:38:05.169Z,96567.19
2023-02-18T12:39:16.564Z,96572.31
2023-02-18T12:40:49.312Z,96572.66
2023-02-18T12:42:36.922Z,96578.28
2023-02-18T12:43:57.180Z,96578.28
2023-02-18T12:45:19.818Z,96569.22
2023-02-18T12:46:42.195Z,96576.00
2023-02-18T12:48:20.106Z,96577.34
2023-02-18T12:49:50.158Z,96578.38
2023-02-18T12:51:11.842Z,96605.75
2023-02-18T12:52:28.999Z,96575.66
2023-02-18T12:53:48.413Z,96573.31
2023-02-18T12:55:19.316Z,96579.69
2023-02-18T12:56:41.934Z,96576.25
2023-02-18T12:57:53.918Z,96565.00
2023-02-18T12:59:07.897Z,96575.19
2023-02-18T13:00:49.799Z,96556.06
2023-02-18T13:02:17.465Z,96559.09
2023-02-18T13:03:58.689Z,96546.66
2023-02-18T13:05:16.973Z,96555.56
2023-02-18T13:06:41.777Z,96557.19
2023-02-18T13:08:18.543Z,96546.25
2023-02-18T13:09:37.507Z,96565.00
2023-02-18T13:10:56.995Z,96565.44
2023-02-18T13:12:08.369Z,96574.56
2023-02-18T13:13:16.927Z,96557.75
2023-02-18T13:14:26.564Z,96567.19
2023-02-18T13:15:37.066Z,96563.50
2023-02-18T13:16:44.578Z,96555.31
2023-02-18T13:17:50.334Z,96542.72
2023-02-18T13:19:04.322Z,96550.75
2023-02-18T13:20:17.854Z,96548.22
2023-02-18T13:21:22.673Z,96558.22
2023-02-18T13:22:29.969Z,96556.63
2023-02-18T13:23:38.297Z,96549.34
2023-02-18T13:24:46.885Z,96544.00
2023-02-18T13:25:56.390Z,96558.03
2023-02-18T13:27:11.868Z,96557.09
2023-02-18T13:28:22.055Z,96559.78